Time;durP1;ratioP1;P1;durP2;ratioP2;P2;SDS_P1;SDS_P2;PMS_P1;PMS_P2;Temp;Humidity;BMP_temperature;BMP_pressure;BME280_temperature;BME280_humidity;BME280_pressure;Samples;Min_cycle;Max_cycle;Signal;HPM_P1;HPM_P2
2022/11/17 00:01:42;;;;;;;10.00;3.03;;;;;;;7.59;100.00;98640.75;5033848;28;20029;-80
2022/11/17 00:04:07;;;;;;;4.65;2.60;;;;;;;7.59;100.00;98659.25;5033863;28;20026;-79
2022/11/17 00:06:33;;;;;;;13.40;2.85;;;;;;;7.62;100.00;98635.09;5035597;28;20079;-80
2022/11/17 00:08:58;;;;;;;4.28;2.22;;;;;;;7.61;100.00;98612.28;5037193;28;20661;-80
2022/11/17 00:11:23;;;;;;;8.43;2.13;;;;;;;7.63;100.00;98623.53;5037730;28;20080;-79
2022/11/17 00:16:33;;;;;;;7.60;2.40;;;;;;;7.63;100.00;98593.56;5037788;28;20047;-79
2022/11/17 00:21:42;;;;;;;6.05;2.50;;;;;;;7.65;100.00;98605.63;5037491;28;20142;-79
2022/11/17 00:24:07;;;;;;;7.30;2.03;;;;;;;7.65;100.00;98610.94;5037317;28;20108;-78
2022/11/17 00:27:00;;;;;;;7.13;2.60;;;;;;;7.66;100.00;98627.63;5035328;28;20025;-81
2022/11/17 00:29:20;;;;;;;7.53;2.25;;;;;;;7.66;100.00;98620.53;5037086;28;20142;-78
2022/11/17 00:34:30;;;;;;;5.65;2.55;;;;;;;7.65;100.00;98594.22;5036964;28;20071;-79
2022/11/17 00:36:56;;;;;;;6.10;2.70;;;;;;;7.67;100.00;98584.28;5037176;28;20399;-78
2022/11/17 00:39:22;;;;;;;3.88;2.72;;;;;;;7.67;100.00;98593.03;5037304;28;20064;-77
2022/11/17 00:41:48;;;;;;;9.30;2.80;;;;;;;7.68;100.00;98576.16;5037042;28;20025;-77
2022/11/17 00:44:13;;;;;;;6.85;3.00;;;;;;;7.69;100.00;98569.06;5036864;28;20032;-77
2022/11/17 00:46:40;;;;;;;6.30;3.10;;;;;;;7.71;100.00;98559.94;5037015;28;20034;-77
2022/11/17 00:49:07;;;;;;;6.35;3.13;;;;;;;7.71;100.00;98548.53;5036727;28;20037;-76
2022/11/17 00:51:33;;;;;;;6.30;2.72;;;;;;;7.73;100.00;98560.59;5037039;28;20033;-80
2022/11/17 00:53:58;;;;;;;4.75;2.50;;;;;;;7.77;100.00;98566.34;5036506;28;20025;-78
2022/11/17 00:56:24;;;;;;;3.33;2.50;;;;;;;7.82;100.00;98563.16;5035413;28;20144;-77
2022/11/17 00:58:50;;;;;;;4.28;2.67;;;;;;;7.80;100.00;98558.06;5036572;28;20040;-78
2022/11/17 01:01:16;;;;;;;7.70;3.05;;;;;;;7.81;100.00;98558.88;5036490;28;20088;-78
2022/11/17 01:03:41;;;;;;;4.53;2.70;;;;;;;7.82;100.00;98555.22;5036234;28;20442;-76
2022/11/17 01:06:16;;;;;;;5.03;2.83;;;;;;;7.82;100.00;98539.34;5036638;28;20075;-77
2022/11/17 01:08:41;;;;;;;6.53;2.95;;;;;;;7.83;100.00;98536.50;5035955;28;20132;-77
2022/11/17 01:11:16;;;;;;;3.65;2.58;;;;;;;7.83;100.00;98519.81;5036646;28;20421;-77
2022/11/17 01:13:43;;;;;;;3.88;2.50;;;;;;;7.88;100.00;98522.75;5036411;28;20036;-77
2022/11/17 01:16:22;;;;;;;4.03;2.17;;;;;;;7.92;100.00;98521.41;5035872;28;20105;-76
2022/11/17 01:18:48;;;;;;;3.22;2.40;;;;;;;7.92;100.00;98522.19;5035061;28;20032;-77
2022/11/17 01:21:15;;;;;;;3.88;2.60;;;;;;;7.95;100.00;98523.69;5036337;28;20026;-76
2022/11/17 01:23:42;;;;;;;3.53;2.20;;;;;;;7.97;100.00;98520.84;5035943;28;20021;-80
2022/11/17 01:26:10;;;;;;;5.50;2.60;;;;;;;7.99;100.00;98518.88;5035692;28;20112;-77
2022/11/17 01:28:36;;;;;;;5.25;2.60;;;;;;;7.99;100.00;98513.56;5035977;28;20018;-77
2022/11/17 01:31:07;;;;;;;5.30;2.50;;;;;;;8.01;100.00;98506.25;5036262;28;20354;-77
2022/11/17 01:33:33;;;;;;;4.15;2.38;;;;;;;8.04;100.00;98504.06;5036051;28;20103;-76
2022/11/17 01:36:04;;;;;;;4.15;2.30;;;;;;;8.02;100.00;98502.63;5035659;28;20462;-75
2022/11/17 01:38:30;;;;;;;3.80;2.05;;;;;;;8.07;100.00;98509.00;5035674;28;20112;-76
2022/11/17 01:41:00;;;;;;;3.15;1.70;;;;;;;8.09;100.00;98493.78;5035698;28;20036;-76
2022/11/17 01:43:44;;;;;;;2.80;1.70;;;;;;;8.13;100.00;98483.63;5035664;28;20017;-75
2022/11/17 01:46:17;;;;;;;3.63;1.90;;;;;;;8.15;100.00;98499.34;5034425;28;20088;-78
2022/11/17 01:48:44;;;;;;;1.63;1.52;;;;;;;8.18;100.00;98478.63;5035768;28;20026;-78
2022/11/17 01:51:12;;;;;;;3.47;1.90;;;;;;;8.20;100.00;98473.16;5035472;28;20033;-78
2022/11/17 01:53:38;;;;;;;2.28;1.77;;;;;;;8.19;100.00;98463.53;5050736;28;20511;-77
2022/11/17 01:56:10;;;;;;;2.28;1.83;;;;;;;8.20;100.00;98455.41;5034166;28;20365;-77
2022/11/17 01:58:45;;;;;;;4.85;1.80;;;;;;;8.23;100.00;98460.34;5035939;28;20108;-78
2022/11/17 02:01:11;;;;;;;2.63;2.00;;;;;;;8.25;100.00;98460.16;5035365;28;20025;-78
2022/11/17 02:03:38;;;;;;;3.95;2.22;;;;;;;8.24;100.00;98461.16;5033996;28;20029;-78
2022/11/17 02:06:30;;;;;;;2.28;1.88;;;;;;;8.27;100.00;98444.91;5035199;28;20060;-76
2022/11/17 02:08:58;;;;;;;3.58;2.08;;;;;;;8.26;100.00;98459.97;5035204;28;20382;-78
2022/11/17 02:11:24;;;;;;;5.50;2.20;;;;;;;8.30;100.00;98457.81;5035879;28;20116;-80
2022/11/17 02:13:53;;;;;;;3.72;2.58;;;;;;;8.31;100.00;98446.19;5035648;28;20095;-78
2022/11/17 02:16:19;;;;;;;2.15;1.85;;;;;;;8.33;100.00;98435.41;5034777;28;20102;-78
2022/11/17 02:18:45;;;;;;;3.35;1.98;;;;;;;8.32;100.00;98450.47;5033920;28;20094;-76
2022/11/17 02:21:36;;;;;;;4.68;2.20;;;;;;;8.32;100.00;98445.19;5035030;28;20021;-77
2022/11/17 02:24:08;;;;;;;3.80;1.95;;;;;;;8.34;100.00;98445.00;5031401;28;20033;-77
2022/11/17 02:26:59;;;;;;;3.35;2.03;;;;;;;8.34;100.00;98439.69;5035266;28;20060;-79
2022/11/17 02:30:00;;;;;;;3.15;2.10;;;;;;;8.30;100.00;98440.06;5034569;28;20033;-76
2022/11/17 02:32:38;;;;;;;7.28;2.50;;;;;;;8.28;100.00;98446.53;5032929;28;20033;-77
2022/11/17 02:35:27;;;;;;;4.82;2.13;;;;;;;8.28;100.00;98441.25;5034666;28;20030;-77
2022/11/17 02:38:08;;;;;;;3.42;1.95;;;;;;;8.28;100.00;98438.59;5034931;28;20453;-78
2022/11/17 02:40:40;;;;;;;7.45;2.30;;;;;;;8.28;100.00;98425.34;5034261;28;20083;-77
2022/11/17 02:46:01;;;;;;;8.35;2.60;;;;;;;8.23;100.00;98410.00;5034739;28;20124;-76
2022/11/17 02:48:40;;;;;;;4.32;2.38;;;;;;;8.18;100.00;98415.06;5034873;28;20300;-77
2022/11/17 02:51:17;;;;;;;7.30;2.70;;;;;;;8.13;100.00;98409.47;5035244;28;20452;-76
2022/11/17 02:53:43;;;;;;;5.43;2.53;;;;;;;8.11;100.00;98406.19;5034728;28;20052;-77
2022/11/17 02:56:08;;;;;;;5.82;2.10;;;;;;;8.08;100.00;98406.56;5033414;28;20021;-78
2022/11/17 02:58:34;;;;;;;4.68;2.28;;;;;;;8.06;100.00;98401.44;5034492;28;20032;-77
2022/11/17 03:01:13;;;;;;;6.82;1.92;;;;;;;8.07;100.00;98392.47;5034556;28;20112;-77
2022/11/17 03:04:22;;;;;;;4.20;1.80;;;;;;;8.07;100.00;98389.81;5034752;28;20116;-77
2022/11/17 03:07:05;;;;;;;11.10;2.20;;;;;;;8.06;100.00;98388.19;5031152;28;20038;-77
2022/11/17 03:09:46;;;;;;;4.88;2.10;;;;;;;8.08;100.00;98380.88;5034210;28;20045;-77
2022/11/17 03:12:14;;;;;;;;;;;;;;;8.05;100.00;98385.72;5034473;28;20084;-76
2022/11/17 03:15:08;;;;;;;4.00;1.90;;;;;;;8.07;100.00;98370.47;5033998;28;20006;-76
2022/11/17 03:17:57;;;;;;;5.50;1.80;;;;;;;8.08;100.00;98362.34;5034421;28;20025;-77
2022/11/17 03:20:26;;;;;;;7.10;2.40;;;;;;;8.10;100.00;98362.97;5034174;28;20037;-77
2022/11/17 03:23:16;;;;;;;5.75;1.83;;;;;;;8.15;100.00;98353.66;5033820;28;20104;-77
2022/11/17 03:25:46;;;;;;;8.55;1.90;;;;;;;8.17;100.00;98357.78;5033289;28;20100;-78
2022/11/17 03:28:14;;;;;;;4.97;1.90;;;;;;;8.23;100.00;98350.91;5033981;28;20021;-77
2022/11/17 03:30:44;;;;;;;6.43;2.03;;;;;;;8.27;100.00;98350.38;5034371;28;20213;-77
2022/11/17 03:33:14;;;;;;;5.65;1.60;;;;;;;8.28;100.00;98343.22;5033316;28;20025;-77
2022/11/17 03:35:46;;;;;;;5.63;1.60;;;;;;;8.30;100.00;98344.69;5033899;28;20037;-77
2022/11/17 03:38:13;;;;;;;6.20;2.17;;;;;;;8.34;100.00;98341.66;5033859;28;20056;-77
2022/11/17 03:40:45;;;;;;;3.90;1.50;;;;;;;8.35;100.00;98333.53;5033070;28;20026;-78
2022/11/17 03:43:11;;;;;;;;;;;;;;;8.36;100.00;98319.28;5034011;28;20033;-76
2022/11/17 03:45:41;;;;;;;4.32;1.20;;;;;;;8.35;100.00;98322.94;5031974;28;19997;-75
2022/11/17 03:48:13;;;;;;;2.38;1.25;;;;;;;8.37;100.00;98315.59;5032098;28;20450;-76
2022/11/17 03:51:08;;;;;;;2.30;1.40;;;;;;;8.38;100.00;98319.91;5033343;28;20025;-76
2022/11/17 03:53:34;;;;;;;8.98;1.60;;;;;;;8.41;100.00;98335.44;5032611;28;20047;-76
2022/11/17 03:56:23;;;;;;;3.53;1.40;;;;;;;8.43;100.00;98329.94;5048465;28;20037;-79
2022/11/17 03:58:56;;;;;;;4.30;1.60;;;;;;;8.44;100.00;98326.34;5031353;28;20033;-76
2022/11/17 04:01:24;;;;;;;5.72;1.25;;;;;;;8.44;100.00;98324.50;5033179;28;20506;-78
2022/11/17 04:03:50;;;;;;;4.82;1.75;;;;;;;8.43;100.00;98320.19;5033086;28;20029;-77
2022/11/17 04:06:16;;;;;;;4.65;1.60;;;;;;;8.43;100.00;98322.84;5032796;28;20470;-76
2022/11/17 04:08:41;;;;;;;3.35;1.25;;;;;;;8.45;100.00;98326.16;5032909;28;20052;-77
2022/11/17 04:16:34;;;;;;;4.43;1.33;;;;;;;8.41;100.00;98334.63;5033076;28;20095;-76
2022/11/17 04:18:59;;;;;;;7.32;1.48;;;;;;;8.41;100.00;98326.69;5033098;28;20026;-77
2022/11/17 04:21:25;;;;;;;3.78;1.50;;;;;;;8.42;100.00;98320.34;5032985;28;20021;-76
2022/11/17 04:23:50;;;;;;;5.60;1.30;;;;;;;8.40;100.00;98319.72;5033346;28;20103;-78
2022/11/17 04:29:00;;;;;;;8.25;1.33;;;;;;;8.39;100.00;98320.72;5033105;28;20095;-76
2022/11/17 04:31:27;;;;;;;8.15;1.48;;;;;;;8.39;100.00;98316.25;5033277;28;20029;-78
2022/11/17 04:33:58;;;;;;;3.65;1.30;;;;;;;8.39;100.00;98304.81;5033449;28;20033;-76
2022/11/17 04:36:33;;;;;;;4.03;1.23;;;;;;;8.37;100.00;98293.59;5033440;28;20442;-76
2022/11/17 04:38:59;;;;;;;4.30;1.40;;;;;;;8.40;100.00;98299.34;5033072;28;20022;-76
2022/11/17 04:44:13;;;;;;;4.07;1.30;;;;;;;8.38;100.00;98289.97;5032676;28;20041;-77
2022/11/17 04:46:39;;;;;;;3.67;1.20;;;;;;;8.38;100.00;98282.81;5033599;28;20071;-76
2022/11/17 04:49:05;;;;;;;3.80;1.38;;;;;;;8.39;100.00;98280.97;5033256;28;20037;-75
2022/11/17 04:51:32;;;;;;;3.70;1.50;;;;;;;8.43;100.00;98280.44;5033035;28;20072;-75
2022/11/17 04:53:58;;;;;;;3.00;1.30;;;;;;;8.44;100.00;98286.59;5036576;28;20021;-75
2022/11/17 04:56:24;;;;;;;3.30;1.52;;;;;;;8.43;100.00;98277.78;5036589;28;20568;-77
2022/11/17 04:58:50;;;;;;;4.60;1.33;;;;;;;8.42;100.00;98262.88;5036490;28;20377;-75
2022/11/17 05:01:17;;;;;;;1.83;1.35;;;;;;;8.43;100.00;98255.75;5036453;28;20537;-76
2022/11/17 05:03:55;;;;;;;3.58;1.25;;;;;;;8.45;100.00;98249.28;5036165;28;20031;-76
2022/11/17 05:06:22;;;;;;;3.50;1.20;;;;;;;8.46;100.00;98263.34;5036744;28;20045;-76
2022/11/17 05:08:48;;;;;;;1.10;1.00;;;;;;;8.46;100.00;98266.84;5036137;28;20124;-76
2022/11/17 05:13:59;;;;;;;2.85;1.10;;;;;;;8.47;100.00;98262.34;5036118;28;20195;-76
2022/11/17 05:19:13;;;;;;;3.72;1.40;;;;;;;8.51;100.00;98284.00;5035802;28;20048;-75
2022/11/17 05:21:39;;;;;;;2.35;1.10;;;;;;;8.52;100.00;98267.09;5035989;28;20028;-76
2022/11/17 05:24:05;;;;;;;2.70;1.65;;;;;;;8.53;100.00;98288.09;5035793;28;20030;-76
2022/11/17 05:26:33;;;;;;;4.30;1.70;;;;;;;8.54;100.00;98263.25;5035827;28;20155;-77
2022/11/17 05:29:00;;;;;;;3.25;1.30;;;;;;;8.56;100.00;98276.31;5036006;28;20108;-77
2022/11/17 05:31:27;;;;;;;3.22;1.50;;;;;;;8.55;100.00;98258.75;5035464;28;20025;-77
2022/11/17 05:33:53;;;;;;;2.55;1.27;;;;;;;8.55;100.00;98262.22;5035667;28;20398;-76
2022/11/17 05:36:19;;;;;;;5.38;1.63;;;;;;;8.56;100.00;98263.88;5035547;28;20084;-77
2022/11/17 05:38:46;;;;;;;2.83;1.50;;;;;;;8.55;100.00;98259.56;5035299;28;20493;-77
2022/11/17 05:41:12;;;;;;;3.45;1.50;;;;;;;8.55;100.00;98264.88;5035712;28;20022;-75
2022/11/17 05:43:37;;;;;;;4.80;1.70;;;;;;;8.56;100.00;98265.72;5035361;28;20024;-75
2022/11/17 05:46:03;;;;;;;4.65;1.85;;;;;;;8.57;100.00;98272.63;5034224;28;20029;-75
2022/11/17 05:48:28;;;;;;;4.20;2.45;;;;;;;8.58;100.00;98268.97;5050710;28;20044;-75
2022/11/17 05:50:55;;;;;;;3.75;2.05;;;;;;;8.56;100.00;98261.22;5035928;28;20021;-74
2022/11/17 05:53:21;;;;;;;6.55;2.10;;;;;;;8.56;100.00;98252.47;5035968;28;20403;-75
2022/11/17 05:55:47;;;;;;;6.63;1.80;;;;;;;8.57;100.00;98259.38;5035675;28;20108;-76
2022/11/17 05:58:24;;;;;;;3.15;2.00;;;;;;;8.57;100.00;98254.91;5034870;28;20121;-75
2022/11/17 06:00:51;;;;;;;6.78;2.22;;;;;;;8.58;100.00;98261.03;5035234;28;20029;-77
2022/11/17 06:03:24;;;;;;;3.58;1.83;;;;;;;8.59;100.00;98257.38;5034188;28;20033;-81
2022/11/17 06:05:51;;;;;;;4.50;2.13;;;;;;;8.59;100.00;98263.50;5034854;28;20489;-75
2022/11/17 06:08:16;;;;;;;9.50;2.25;;;;;;;8.60;100.00;98272.28;5034776;28;20037;-78
2022/11/17 06:10:42;;;;;;;3.25;2.13;;;;;;;8.59;100.00;98278.59;5035143;28;20036;-76
2022/11/17 06:13:07;;;;;;;6.28;2.35;;;;;;;8.56;100.00;98266.53;5035002;28;20025;-75
2022/11/17 06:15:33;;;;;;;4.68;1.70;;;;;;;8.54;100.00;98271.19;5034861;28;20056;-75
2022/11/17 06:18:04;;;;;;;3.47;1.70;;;;;;;8.52;100.00;98278.50;5034966;28;20481;-75
2022/11/17 06:20:37;;;;;;;6.20;1.92;;;;;;;8.46;100.00;98287.19;5034855;28;20084;-75
2022/11/17 06:23:05;;;;;;;6.55;1.50;;;;;;;8.42;100.00;98277.94;5034575;28;20116;-75
2022/11/17 06:25:34;;;;;;;7.93;1.60;;;;;;;8.40;100.00;98272.84;5034658;28;20022;-76
2022/11/17 06:28:04;;;;;;;5.93;1.50;;;;;;;8.38;100.00;98282.81;5034673;28;20037;-76
2022/11/17 06:30:31;;;;;;;5.00;1.45;;;;;;;8.34;100.00;98281.53;5035159;28;20091;-75
2022/11/17 06:32:59;;;;;;;5.53;1.95;;;;;;;8.31;100.00;98268.66;5035121;28;20111;-75
2022/11/17 06:35:25;;;;;;;4.82;1.73;;;;;;;8.28;100.00;98277.84;5034561;28;20440;-76
2022/11/17 06:37:50;;;;;;;5.22;1.65;;;;;;;8.26;100.00;98271.88;5034259;28;20109;-75
2022/11/17 06:40:16;;;;;;;10.55;2.10;;;;;;;8.24;100.00;98268.63;5034392;28;20025;-75
2022/11/17 06:45:25;;;;;;;4.20;1.63;;;;;;;8.20;100.00;98277.94;5034282;28;20087;-77
2022/11/17 06:47:54;;;;;;;4.53;1.40;;;;;;;8.19;100.00;98286.06;5049342;28;20025;-76
2022/11/17 06:50:19;;;;;;;2.35;1.20;;;;;;;8.16;100.00;98271.34;5033835;28;20060;-77
2022/11/17 06:52:45;;;;;;;3.88;1.23;;;;;;;8.12;100.00;98289.47;5033238;28;20065;-75
2022/11/17 06:55:10;;;;;;;2.78;1.30;;;;;;;8.12;100.00;98285.97;5034328;28;20033;-76
2022/11/17 06:57:36;;;;;;;2.08;1.10;;;;;;;8.09;100.00;98291.63;5033736;28;20440;-78
2022/11/17 07:00:03;;;;;;;5.03;1.38;;;;;;;8.07;100.00;98277.78;5033560;28;20032;-78
2022/11/17 07:02:30;;;;;;;4.05;1.42;;;;;;;8.08;100.00;98292.66;5033380;28;20116;-76
2022/11/17 07:04:55;;;;;;;6.78;1.75;;;;;;;8.07;100.00;98291.81;5033818;28;20021;-77
2022/11/17 07:07:21;;;;;;;6.00;1.60;;;;;;;8.03;100.00;98287.94;5033300;28;20035;-76
2022/11/17 07:09:46;;;;;;;6.43;1.80;;;;;;;8.04;100.00;98296.69;5034091;28;20121;-79
2022/11/17 07:12:11;;;;;;;3.75;1.70;;;;;;;8.03;100.00;98297.69;5033670;28;20113;-77
2022/11/17 07:14:37;;;;;;;7.05;1.98;;;;;;;8.01;100.00;98295.22;5033413;28;20108;-76
2022/11/17 07:17:02;;;;;;;2.83;1.50;;;;;;;7.98;100.00;98295.59;5033454;28;20120;-77
2022/11/17 07:19:27;;;;;;;4.20;1.45;;;;;;;7.99;100.00;98307.03;5033125;28;20029;-79
2022/11/17 07:21:53;;;;;;;5.45;1.27;;;;;;;7.97;100.00;98309.00;5033487;28;20402;-78
2022/11/17 07:24:18;;;;;;;3.33;1.30;;;;;;;7.97;100.00;98314.31;5048818;28;20407;-78
2022/11/17 07:26:43;;;;;;;3.83;1.30;;;;;;;7.94;100.00;98303.09;5033303;28;20037;-77
2022/11/17 07:29:09;;;;;;;3.30;1.20;;;;;;;7.93;100.00;98311.22;5033090;28;20030;-77
2022/11/17 07:31:35;;;;;;;3.58;1.55;;;;;;;7.94;100.00;98310.19;5033546;28;20025;-81
2022/11/17 07:34:01;;;;;;;2.45;1.30;;;;;;;7.93;100.00;98311.22;5033162;28;20029;-78
2022/11/17 07:36:27;;;;;;;3.28;1.38;;;;;;;7.94;100.00;98310.19;5033236;28;20030;-80
2022/11/17 07:38:52;;;;;;;4.22;1.50;;;;;;;7.92;100.00;98312.22;5033631;28;20037;-78
2022/11/17 07:41:17;;;;;;;3.08;1.40;;;;;;;7.91;100.00;98316.69;5033260;28;20036;-79
2022/11/17 07:43:43;;;;;;;7.72;1.95;;;;;;;7.92;100.00;98320.16;5032748;28;20166;-78
2022/11/17 07:46:11;;;;;;;3.58;1.45;;;;;;;7.94;100.00;98331.38;5033067;28;20461;-78
2022/11/17 07:48:36;;;;;;;4.70;1.73;;;;;;;7.92;100.00;98320.16;5033074;28;20029;-77
2022/11/17 07:51:03;;;;;;;6.32;1.67;;;;;;;7.90;100.00;98320.34;5033079;28;20029;-77
2022/11/17 07:53:28;;;;;;;2.92;1.42;;;;;;;7.89;100.00;98324.00;5033644;28;20078;-78
2022/11/17 07:55:54;;;;;;;1.80;1.40;;;;;;;7.87;100.00;98327.84;5033009;28;20116;-80
2022/11/17 07:58:20;;;;;;;4.78;1.65;;;;;;;7.86;100.00;98323.53;5033417;28;20037;-78
2022/11/17 08:00:45;;;;;;;5.78;1.60;;;;;;;7.86;100.00;98327.00;5033686;28;20044;-78
2022/11/17 08:03:10;;;;;;;2.58;1.33;;;;;;;7.83;100.00;98326.56;5032940;28;20033;-79
2022/11/17 08:05:38;;;;;;;3.83;1.77;;;;;;;7.85;100.00;98335.13;5032721;28;20448;-78
2022/11/17 08:08:06;;;;;;;4.45;1.58;;;;;;;7.83;100.00;98326.56;5032784;28;20056;-78
2022/11/17 08:10:33;;;;;;;3.72;1.40;;;;;;;7.83;100.00;98329.22;5033286;28;20045;-78
2022/11/17 08:13:02;;;;;;;4.70;1.48;;;;;;;7.82;100.00;98338.94;5032641;28;20047;-79
2022/11/17 08:15:28;;;;;;;3.53;1.63;;;;;;;7.82;100.00;98338.13;5032891;28;20022;-80
2022/11/17 08:17:55;;;;;;;9.88;2.05;;;;;;;7.84;100.00;98339.63;5032907;28;20029;-80
2022/11/17 08:20:22;;;;;;;5.45;1.83;;;;;;;7.84;100.00;98338.81;5035753;28;20034;-78
2022/11/17 08:22:52;;;;;;;7.00;1.70;;;;;;;7.83;100.00;98340.59;5032689;28;20087;-78
2022/11/17 08:25:19;;;;;;;6.13;1.67;;;;;;;7.85;100.00;98343.91;5032290;28;20022;-77
2022/11/17 08:27:44;;;;;;;6.53;1.75;;;;;;;7.88;100.00;98354.13;5035560;28;20112;-78
2022/11/17 08:30:10;;;;;;;8.30;1.75;;;;;;;7.93;100.00;98337.69;5039679;28;20108;-81
2022/11/17 08:32:35;;;;;;;4.03;1.50;;;;;;;7.92;100.00;98351.94;5037859;28;20040;-82
2022/11/17 08:35:06;;;;;;;5.97;1.67;;;;;;;7.90;100.00;98361.91;5039095;28;20037;-80
2022/11/17 08:37:31;;;;;;;4.85;1.50;;;;;;;7.88;100.00;98361.25;5037017;28;20481;-79
2022/11/17 08:39:57;;;;;;;10.43;1.75;;;;;;;7.86;100.00;98356.13;5036376;28;20038;-77
2022/11/17 08:42:22;;;;;;;7.32;1.80;;;;;;;7.88;100.00;98366.53;5036843;28;20488;-78
2022/11/17 08:44:48;;;;;;;5.72;1.60;;;;;;;7.90;100.00;98365.34;5036148;28;20400;-79
2022/11/17 08:47:13;;;;;;;3.80;1.50;;;;;;;7.92;100.00;98362.53;5051680;28;20038;-78
2022/11/17 08:49:38;;;;;;;6.63;1.73;;;;;;;7.91;100.00;98369.66;5036214;28;20104;-78
2022/11/17 08:52:04;;;;;;;5.35;1.50;;;;;;;7.88;100.00;98364.72;5051405;28;20040;-78
2022/11/17 08:54:29;;;;;;;5.88;1.40;;;;;;;7.88;100.00;98374.47;5035844;28;20037;-77
2022/11/17 08:56:58;;;;;;;5.57;1.52;;;;;;;7.87;100.00;98391.38;5034596;28;20032;-80
2022/11/17 08:59:25;;;;;;;5.35;1.55;;;;;;;7.83;100.00;98372.38;5036227;28;20028;-78
2022/11/17 09:01:50;;;;;;;7.65;1.60;;;;;;;7.80;100.00;98380.69;5035994;28;20040;-78
2022/11/17 09:04:16;;;;;;;5.80;1.60;;;;;;;7.80;100.00;98391.28;5036061;28;20029;-77
2022/11/17 09:06:42;;;;;;;7.18;1.52;;;;;;;7.79;100.00;98386.97;5035693;28;20025;-79
2022/11/17 09:09:07;;;;;;;5.00;1.40;;;;;;;7.79;100.00;98391.44;5035870;28;20046;-78
2022/11/17 09:11:32;;;;;;;7.25;1.45;;;;;;;7.80;100.00;98390.47;5036022;28;20116;-79
2022/11/17 09:13:58;;;;;;;3.10;1.10;;;;;;;7.80;100.00;98390.47;5035791;28;20086;-79
2022/11/17 09:16:24;;;;;;;4.68;1.10;;;;;;;7.80;100.00;98396.56;5035907;28;20101;-78
2022/11/17 09:18:54;;;;;;;5.65;1.55;;;;;;;7.77;100.00;98410.16;5035863;28;20029;-78
2022/11/17 09:21:20;;;;;;;6.38;1.55;;;;;;;7.78;100.00;98401.22;5035969;28;20026;-79
2022/11/17 09:23:45;;;;;;;4.40;1.20;;;;;;;7.79;100.00;98416.09;5018380;28;20018;-78
2022/11/17 09:26:13;;;;;;;2.95;1.42;;;;;;;7.81;100.00;98405.31;5035978;28;20083;-77
2022/11/17 09:28:39;;;;;;;3.13;1.15;;;;;;;7.84;100.00;98405.81;5035930;28;20029;-78
2022/11/17 09:31:15;;;;;;;12.70;1.77;;;;;;;7.80;100.00;98424.88;5036355;28;20034;-78
2022/11/17 09:33:41;;;;;;;5.22;1.65;;;;;;;7.78;100.00;98427.69;5035901;28;20450;-77
2022/11/17 09:36:07;;;;;;;7.43;1.58;;;;;;;7.74;100.00;98423.75;5035527;28;20065;-79
2022/11/17 09:38:34;;;;;;;6.63;1.20;;;;;;;7.74;100.00;98423.75;5033616;28;20048;-79
2022/11/17 09:41:22;;;;;;;5.75;1.40;;;;;;;7.74;100.00;98434.34;5035934;28;20187;-79
2022/11/17 09:44:18;;;;;;;9.63;1.52;;;;;;;7.73;100.00;98438.00;5036109;28;20028;-78
2022/11/17 09:46:57;;;;;;;14.13;2.13;;;;;;;7.71;100.00;98443.47;5035775;28;20104;-77
2022/11/17 09:50:00;;;;;;;4.97;2.30;;;;;;;7.73;100.00;98446.78;5035586;28;20025;-77
2022/11/17 09:52:47;;;;;;;9.35;1.60;;;;;;;7.75;100.00;98458.00;5034728;28;20065;-78
2022/11/17 09:55:12;;;;;;;7.05;1.90;;;;;;;7.77;100.00;98457.81;5036212;28;20108;-78
2022/11/17 09:57:47;;;;;;;5.20;1.70;;;;;;;7.77;100.00;98457.81;5035842;28;20421;-79
2022/11/17 10:00:21;;;;;;;7.88;2.00;;;;;;;7.76;100.00;98469.41;5035652;28;20036;-78
2022/11/17 10:02:46;;;;;;;8.43;1.80;;;;;;;7.76;100.00;98467.59;5035581;28;20030;-77
2022/11/17 10:05:38;;;;;;;6.28;1.60;;;;;;;7.77;100.00;98460.47;5035027;28;20058;-78
2022/11/17 10:08:10;;;;;;;11.18;2.05;;;;;;;7.77;100.00;98493.03;5035041;28;20040;-77
2022/11/17 10:10:41;;;;;;;4.90;1.65;;;;;;;7.79;100.00;98473.53;5035149;28;20047;-77
2022/11/17 10:13:13;;;;;;;;;;;;;;;7.80;100.00;98473.34;5035783;28;20068;-78
2022/11/17 10:15:59;;;;;;;;;;;;;;;7.83;100.00;98477.47;5035944;28;20019;-77
2022/11/17 10:18:27;;;;;;;5.85;1.50;;;;;;;7.84;100.00;98482.56;5034801;28;20265;-79
2022/11/17 10:20:53;;;;;;;5.47;1.48;;;;;;;7.86;100.00;98471.81;5035011;28;20080;-79
2022/11/17 10:23:20;;;;;;;7.30;1.55;;;;;;;7.86;100.00;98477.09;5033685;28;20454;-79
2022/11/17 10:25:47;;;;;;;8.50;1.38;;;;;;;7.88;100.00;98480.38;5035726;28;20056;-79
2022/11/17 10:28:32;;;;;;;9.52;2.03;;;;;;;7.87;100.00;98481.41;5034951;28;20036;-79
2022/11/17 10:31:01;;;;;;;6.30;1.42;;;;;;;7.91;100.00;98477.38;5034994;28;20108;-78
2022/11/17 10:33:38;;;;;;;6.72;1.77;;;;;;;7.98;100.00;98496.03;5034808;28;20029;-79
2022/11/17 10:36:12;;;;;;;4.82;1.50;;;;;;;7.99;100.00;98495.03;5035250;28;20048;-79
2022/11/17 10:38:43;;;;;;;8.18;2.03;;;;;;;7.98;100.00;98501.31;5034708;28;20523;-77
2022/11/17 10:41:14;;;;;;;5.68;1.60;;;;;;;8.02;100.00;98499.97;5035000;28;20033;-78
2022/11/17 10:43:53;;;;;;;5.68;1.23;;;;;;;7.93;100.00;98518.56;5034484;28;20036;-77
2022/11/17 10:46:18;;;;;;;7.43;2.35;;;;;;;7.89;100.00;98508.50;5034550;28;20453;-77
2022/11/17 10:49:02;;;;;;;6.47;2.13;;;;;;;7.83;100.00;98511.88;5034856;28;20108;-76
2022/11/17 10:51:31;;;;;;;5.25;1.75;;;;;;;7.76;100.00;98509.94;5033714;28;20030;-76
2022/11/17 10:54:14;;;;;;;6.63;1.48;;;;;;;7.76;100.00;98511.75;5034942;28;20026;-78
2022/11/17 10:56:43;;;;;;;5.47;1.50;;;;;;;7.75;100.00;98524.16;5033804;28;20401;-76
2022/11/17 10:59:08;;;;;;;8.18;1.60;;;;;;;7.74;100.00;98516.41;5034253;28;20025;-77
2022/11/17 11:01:37;;;;;;;7.15;1.75;;;;;;;7.71;100.00;98517.59;5034231;28;20464;-80
2022/11/17 11:04:05;;;;;;;4.60;1.15;;;;;;;7.69;100.00;98524.88;5033738;28;20036;-79
2022/11/17 11:06:32;;;;;;;6.68;2.22;;;;;;;7.69;100.00;98539.97;5034198;28;20535;-78
2022/11/17 11:09:02;;;;;;;4.93;1.58;;;;;;;7.67;100.00;98532.16;5033872;28;20041;-78
2022/11/17 11:11:36;;;;;;;6.65;1.55;;;;;;;7.68;100.00;98544.41;5034096;28;20030;-80
2022/11/17 11:14:28;;;;;;;4.90;1.30;;;;;;;7.71;100.00;98543.25;5034536;28;20032;-83
2022/11/17 11:16:53;;;;;;;;;;;;;;;7.77;100.00;98548.63;5033552;28;20034;-83
2022/11/17 11:19:19;;;;;;;4.05;1.35;;;;;;;7.82;100.00;98539.34;5033477;28;20059;-83
2022/11/17 11:22:26;;;;;;;8.75;1.35;;;;;;;7.83;100.00;98536.50;5034531;28;20033;-80
2022/11/17 11:25:19;;;;;;;7.03;1.30;;;;;;;7.86;100.00;98553.88;5031520;28;20025;-83
2022/11/17 11:27:59;;;;;;;6.57;1.35;;;;;;;7.78;100.00;98562.72;5034439;28;20358;-80
2022/11/17 11:30:26;;;;;;;8.20;1.27;;;;;;;7.78;100.00;98552.13;5034143;28;20053;-84
2022/11/17 11:33:11;;;;;;;4.68;1.30;;;;;;;7.78;100.00;98557.41;5033797;28;20029;-83
2022/11/17 11:35:37;;;;;;;7.93;1.50;;;;;;;7.79;100.00;98555.59;5034214;28;20029;-81
2022/11/17 11:38:11;;;;;;;5.57;1.40;;;;;;;7.83;100.00;98556.88;5033819;28;20087;-81
2022/11/17 11:40:40;;;;;;;5.47;1.20;;;;;;;7.87;100.00;98560.84;5033740;28;20021;-83
2022/11/17 11:43:33;;;;;;;3.28;1.25;;;;;;;7.88;100.00;98575.69;5034206;28;20032;-84
2022/11/17 11:46:13;;;;;;;7.00;1.30;;;;;;;7.89;100.00;98572.06;5037198;28;20454;-85
2022/11/17 11:48:39;;;;;;;2.38;1.30;;;;;;;7.91;100.00;98570.03;5036223;28;20033;-82
2022/11/17 11:51:14;;;;;;;3.55;1.33;;;;;;;7.91;100.00;98567.41;5036223;28;20454;-82
2022/11/17 11:53:46;;;;;;;6.15;1.77;;;;;;;7.93;100.00;98574.16;5037663;28;20033;-82
2022/11/17 11:56:26;;;;;;;6.68;1.42;;;;;;;7.93;100.00;98583.94;5034294;28;20040;-84
2022/11/17 11:59:17;;;;;;;6.25;1.40;;;;;;;7.91;100.00;98576.19;5034177;28;20070;-80
2022/11/17 12:01:49;;;;;;;7.28;2.10;;;;;;;7.91;100.00;98600.00;5032450;28;20374;-79
2022/11/17 12:04:25;;;;;;;;;;;;;;;7.91;100.00;98589.41;5031908;28;20064;-85
2022/11/17 12:06:53;;;;;;;5.78;2.13;;;;;;;7.89;100.00;98591.41;5033636;28;19959;-84
2022/11/17 12:09:48;;;;;;;7.65;1.80;;;;;;;7.89;100.00;98596.69;5033641;28;20045;-85
2022/11/17 12:12:16;;;;;;;2.95;1.63;;;;;;;7.89;100.00;98594.06;5032694;28;20028;-81
2022/11/17 12:15:17;;;;;;;6.07;1.90;;;;;;;7.92;100.00;98611.41;5033276;28;20060;-80
2022/11/17 12:17:55;;;;;;;8.63;1.83;;;;;;;7.93;100.00;98607.78;5033342;28;20034;-79
2022/11/17 12:20:30;;;;;;;6.70;1.98;;;;;;;7.93;100.00;98607.78;5033259;28;20025;-83